sensor_id;sensor_type;location;lat;lon;timestamp;P1;durP1;ratioP1;P2;durP2;ratioP2
24637;SDS011;12773;50.162;8.548;2022-12-18T00:00:25;46.50;;;15.70;;
24637;SDS011;12773;50.162;8.548;2022-12-18T00:03:13;42.45;;;16.37;;
24637;SDS011;12773;50.162;8.548;2022-12-18T00:06:01;41.60;;;16.45;;
24637;SDS011;12773;50.162;8.548;2022-12-18T00:08:48;48.78;;;17.85;;
24637;SDS011;12773;50.162;8.548;2022-12-18T00:11:36;49.80;;;17.52;;
24637;SDS011;12773;50.162;8.548;2022-12-18T00:14:24;48.15;;;18.52;;
24637;SDS011;12773;50.162;8.548;2022-12-18T00:17:11;44.30;;;16.52;;
24637;SDS011;12773;50.162;8.548;2022-12-18T00:19:59;59.05;;;19.52;;
24637;SDS011;12773;50.162;8.548;2022-12-18T00:28:40;38.80;;;14.65;;
24637;SDS011;12773;50.162;8.548;2022-12-18T00:31:28;50.00;;;17.20;;
24637;SDS011;12773;50.162;8.548;2022-12-18T00:34:15;59.10;;;18.77;;
24637;SDS011;12773;50.162;8.548;2022-12-18T00:37:02;58.00;;;20.05;;
24637;SDS011;12773;50.162;8.548;2022-12-18T00:39:50;54.30;;;18.73;;
24637;SDS011;12773;50.162;8.548;2022-12-18T00:42:37;61.37;;;19.37;;
24637;SDS011;12773;50.162;8.548;2022-12-18T00:45:43;55.00;;;19.55;;
24637;SDS011;12773;50.162;8.548;2022-12-18T00:48:30;52.73;;;19.15;;
24637;SDS011;12773;50.162;8.548;2022-12-18T00:51:18;53.10;;;19.55;;
24637;SDS011;12773;50.162;8.548;2022-12-18T00:54:05;57.15;;;20.08;;
24637;SDS011;12773;50.162;8.548;2022-12-18T00:56:53;57.48;;;19.77;;
24637;SDS011;12773;50.162;8.548;2022-12-18T00:59:40;49.75;;;18.02;;
24637;SDS011;12773;50.162;8.548;2022-12-18T01:02:28;50.98;;;18.20;;
24637;SDS011;12773;50.162;8.548;2022-12-18T01:05:15;46.90;;;17.50;;
24637;SDS011;12773;50.162;8.548;2022-12-18T01:08:02;54.55;;;17.82;;
24637;SDS011;12773;50.162;8.548;2022-12-18T01:10:50;55.98;;;18.98;;
24637;SDS011;12773;50.162;8.548;2022-12-18T01:13:38;58.58;;;19.82;;
24637;SDS011;12773;50.162;8.548;2022-12-18T01:16:26;55.65;;;19.25;;
24637;SDS011;12773;50.162;8.548;2022-12-18T01:19:13;52.88;;;17.52;;
24637;SDS011;12773;50.162;8.548;2022-12-18T01:22:01;52.53;;;18.07;;
24637;SDS011;12773;50.162;8.548;2022-12-18T01:24:48;56.30;;;18.32;;
24637;SDS011;12773;50.162;8.548;2022-12-18T01:27:36;53.85;;;18.70;;
24637;SDS011;12773;50.162;8.548;2022-12-18T01:30:23;47.78;;;17.62;;
24637;SDS011;12773;50.162;8.548;2022-12-18T01:33:11;56.58;;;18.87;;
24637;SDS011;12773;50.162;8.548;2022-12-18T01:35:58;51.75;;;18.85;;
24637;SDS011;12773;50.162;8.548;2022-12-18T01:38:46;60.60;;;18.25;;
24637;SDS011;12773;50.162;8.548;2022-12-18T01:41:34;50.78;;;18.45;;
24637;SDS011;12773;50.162;8.548;2022-12-18T01:47:48;50.30;;;17.85;;
24637;SDS011;12773;50.162;8.548;2022-12-18T01:50:39;49.65;;;17.87;;
24637;SDS011;12773;50.162;8.548;2022-12-18T01:53:28;49.60;;;17.17;;
24637;SDS011;12773;50.162;8.548;2022-12-18T01:56:17;54.30;;;17.55;;
24637;SDS011;12773;50.162;8.548;2022-12-18T01:59:06;54.20;;;17.27;;
24637;SDS011;12773;50.162;8.548;2022-12-18T02:01:59;51.75;;;18.20;;
24637;SDS011;12773;50.162;8.548;2022-12-18T02:04:47;50.50;;;18.17;;
24637;SDS011;12773;50.162;8.548;2022-12-18T02:10:43;44.30;;;16.10;;
24637;SDS011;12773;50.162;8.548;2022-12-18T02:13:52;48.60;;;16.27;;
24637;SDS011;12773;50.162;8.548;2022-12-18T02:16:53;48.42;;;15.83;;
24637;SDS011;12773;50.162;8.548;2022-12-18T02:28:56;50.58;;;15.65;;
24637;SDS011;12773;50.162;8.548;2022-12-18T02:32:00;40.15;;;15.23;;
24637;SDS011;12773;50.162;8.548;2022-12-18T02:34:51;37.98;;;14.87;;
24637;SDS011;12773;50.162;8.548;2022-12-18T02:37:42;46.88;;;15.68;;
24637;SDS011;12773;50.162;8.548;2022-12-18T02:40:31;41.92;;;14.98;;
24637;SDS011;12773;50.162;8.548;2022-12-18T02:43:19;42.90;;;15.60;;
24637;SDS011;12773;50.162;8.548;2022-12-18T02:46:25;45.50;;;15.88;;
24637;SDS011;12773;50.162;8.548;2022-12-18T02:55:30;47.05;;;16.57;;
24637;SDS011;12773;50.162;8.548;2022-12-18T02:58:30;43.70;;;17.20;;
24637;SDS011;12773;50.162;8.548;2022-12-18T03:04:26;47.13;;;16.52;;
24637;SDS011;12773;50.162;8.548;2022-12-18T03:07:16;42.45;;;16.85;;
24637;SDS011;12773;50.162;8.548;2022-12-18T03:10:06;44.63;;;17.17;;
24637;SDS011;12773;50.162;8.548;2022-12-18T03:13:02;44.48;;;16.32;;
24637;SDS011;12773;50.162;8.548;2022-12-18T03:15:56;45.73;;;15.50;;
24637;SDS011;12773;50.162;8.548;2022-12-18T03:18:46;44.58;;;16.87;;
24637;SDS011;12773;50.162;8.548;2022-12-18T03:21:43;40.92;;;15.60;;
24637;SDS011;12773;50.162;8.548;2022-12-18T03:24:36;40.17;;;15.45;;
24637;SDS011;12773;50.162;8.548;2022-12-18T03:27:25;34.00;;;14.50;;
24637;SDS011;12773;50.162;8.548;2022-12-18T03:30:15;41.55;;;15.38;;
24637;SDS011;12773;50.162;8.548;2022-12-18T03:33:15;48.10;;;15.88;;
24637;SDS011;12773;50.162;8.548;2022-12-18T03:36:05;44.67;;;15.90;;
24637;SDS011;12773;50.162;8.548;2022-12-18T03:38:52;41.33;;;15.95;;
24637;SDS011;12773;50.162;8.548;2022-12-18T03:41:43;46.95;;;16.90;;
24637;SDS011;12773;50.162;8.548;2022-12-18T03:44:54;40.05;;;14.55;;
24637;SDS011;12773;50.162;8.548;2022-12-18T03:47:58;40.80;;;16.20;;
24637;SDS011;12773;50.162;8.548;2022-12-18T03:50:54;40.10;;;14.28;;
24637;SDS011;12773;50.162;8.548;2022-12-18T03:56:40;44.03;;;15.57;;
24637;SDS011;12773;50.162;8.548;2022-12-18T03:59:29;40.73;;;14.87;;
24637;SDS011;12773;50.162;8.548;2022-12-18T04:02:17;37.63;;;15.45;;
24637;SDS011;12773;50.162;8.548;2022-12-18T04:05:05;37.78;;;15.58;;
24637;SDS011;12773;50.162;8.548;2022-12-18T04:07:53;40.03;;;14.75;;
24637;SDS011;12773;50.162;8.548;2022-12-18T04:10:42;43.50;;;16.93;;
24637;SDS011;12773;50.162;8.548;2022-12-18T04:13:35;42.95;;;16.20;;
24637;SDS011;12773;50.162;8.548;2022-12-18T04:16:21;40.75;;;16.10;;
24637;SDS011;12773;50.162;8.548;2022-12-18T04:19:08;36.95;;;14.47;;
24637;SDS011;12773;50.162;8.548;2022-12-18T04:21:55;40.55;;;15.55;;
24637;SDS011;12773;50.162;8.548;2022-12-18T04:24:43;41.58;;;15.65;;
24637;SDS011;12773;50.162;8.548;2022-12-18T04:27:30;41.40;;;15.83;;
24637;SDS011;12773;50.162;8.548;2022-12-18T04:30:17;37.17;;;14.20;;
24637;SDS011;12773;50.162;8.548;2022-12-18T04:33:09;40.55;;;14.73;;
24637;SDS011;12773;50.162;8.548;2022-12-18T04:35:58;42.58;;;14.90;;
24637;SDS011;12773;50.162;8.548;2022-12-18T04:38:45;42.43;;;15.90;;
24637;SDS011;12773;50.162;8.548;2022-12-18T04:41:32;45.50;;;17.17;;
24637;SDS011;12773;50.162;8.548;2022-12-18T04:44:19;37.85;;;14.78;;
24637;SDS011;12773;50.162;8.548;2022-12-18T04:47:06;45.45;;;16.17;;
24637;SDS011;12773;50.162;8.548;2022-12-18T04:49:54;46.18;;;16.62;;
24637;SDS011;12773;50.162;8.548;2022-12-18T04:52:41;39.20;;;15.53;;
24637;SDS011;12773;50.162;8.548;2022-12-18T04:55:28;50.15;;;17.67;;
24637;SDS011;12773;50.162;8.548;2022-12-18T04:58:16;43.55;;;17.05;;
24637;SDS011;12773;50.162;8.548;2022-12-18T05:01:03;41.10;;;15.45;;
24637;SDS011;12773;50.162;8.548;2022-12-18T05:03:51;43.63;;;16.07;;
24637;SDS011;12773;50.162;8.548;2022-12-18T05:06:40;46.15;;;16.40;;
24637;SDS011;12773;50.162;8.548;2022-12-18T05:09:27;45.67;;;17.73;;
24637;SDS011;12773;50.162;8.548;2022-12-18T05:12:15;45.38;;;16.25;;
24637;SDS011;12773;50.162;8.548;2022-12-18T05:15:02;54.15;;;19.57;;
24637;SDS011;12773;50.162;8.548;2022-12-18T05:17:50;44.63;;;15.72;;
24637;SDS011;12773;50.162;8.548;2022-12-18T05:20:37;46.18;;;16.05;;
24637;SDS011;12773;50.162;8.548;2022-12-18T05:23:25;58.13;;;18.92;;
24637;SDS011;12773;50.162;8.548;2022-12-18T05:26:18;48.30;;;18.82;;
24637;SDS011;12773;50.162;8.548;2022-12-18T05:29:03;45.48;;;16.93;;
24637;SDS011;12773;50.162;8.548;2022-12-18T05:31:50;53.92;;;20.40;;
24637;SDS011;12773;50.162;8.548;2022-12-18T05:34:37;55.03;;;19.12;;
24637;SDS011;12773;50.162;8.548;2022-12-18T05:37:25;51.28;;;19.17;;
24637;SDS011;12773;50.162;8.548;2022-12-18T05:40:13;45.83;;;17.90;;
24637;SDS011;12773;50.162;8.548;2022-12-18T05:43:00;52.25;;;17.73;;
24637;SDS011;12773;50.162;8.548;2022-12-18T05:45:47;50.85;;;18.70;;
24637;SDS011;12773;50.162;8.548;2022-12-18T05:48:35;45.43;;;16.05;;
24637;SDS011;12773;50.162;8.548;2022-12-18T05:51:23;43.23;;;16.70;;
24637;SDS011;12773;50.162;8.548;2022-12-18T05:54:10;39.90;;;15.63;;
24637;SDS011;12773;50.162;8.548;2022-12-18T05:56:58;44.18;;;15.68;;
24637;SDS011;12773;50.162;8.548;2022-12-18T05:59:45;40.17;;;16.55;;
24637;SDS011;12773;50.162;8.548;2022-12-18T06:02:32;39.05;;;14.87;;
24637;SDS011;12773;50.162;8.548;2022-12-18T06:05:20;41.23;;;15.00;;
24637;SDS011;12773;50.162;8.548;2022-12-18T06:08:08;49.67;;;16.42;;
24637;SDS011;12773;50.162;8.548;2022-12-18T06:10:56;40.20;;;14.63;;
24637;SDS011;12773;50.162;8.548;2022-12-18T06:13:43;43.58;;;15.98;;
24637;SDS011;12773;50.162;8.548;2022-12-18T06:16:32;47.13;;;16.15;;
24637;SDS011;12773;50.162;8.548;2022-12-18T06:19:20;41.68;;;15.75;;
24637;SDS011;12773;50.162;8.548;2022-12-18T06:22:08;39.35;;;15.58;;
24637;SDS011;12773;50.162;8.548;2022-12-18T06:24:55;40.88;;;14.87;;
24637;SDS011;12773;50.162;8.548;2022-12-18T06:27:42;39.75;;;14.73;;
24637;SDS011;12773;50.162;8.548;2022-12-18T06:30:29;42.17;;;15.75;;
24637;SDS011;12773;50.162;8.548;2022-12-18T06:33:17;40.78;;;14.68;;
24637;SDS011;12773;50.162;8.548;2022-12-18T06:36:05;40.12;;;15.03;;
24637;SDS011;12773;50.162;8.548;2022-12-18T06:38:55;38.20;;;15.08;;
24637;SDS011;12773;50.162;8.548;2022-12-18T06:41:43;36.73;;;14.78;;
24637;SDS011;12773;50.162;8.548;2022-12-18T06:44:31;40.23;;;14.95;;
24637;SDS011;12773;50.162;8.548;2022-12-18T06:47:18;41.48;;;15.10;;
24637;SDS011;12773;50.162;8.548;2022-12-18T06:50:05;43.45;;;14.98;;
24637;SDS011;12773;50.162;8.548;2022-12-18T06:52:53;46.48;;;16.42;;
24637;SDS011;12773;50.162;8.548;2022-12-18T06:55:40;35.58;;;13.58;;
24637;SDS011;12773;50.162;8.548;2022-12-18T06:58:28;35.38;;;14.15;;
24637;SDS011;12773;50.162;8.548;2022-12-18T07:01:15;42.05;;;14.87;;
24637;SDS011;12773;50.162;8.548;2022-12-18T07:04:02;40.52;;;14.25;;
24637;SDS011;12773;50.162;8.548;2022-12-18T07:06:50;37.08;;;13.75;;
24637;SDS011;12773;50.162;8.548;2022-12-18T07:09:37;42.80;;;14.60;;
24637;SDS011;12773;50.162;8.548;2022-12-18T07:12:24;41.48;;;15.53;;
24637;SDS011;12773;50.162;8.548;2022-12-18T07:15:14;44.27;;;16.32;;
24637;SDS011;12773;50.162;8.548;2022-12-18T07:18:01;50.92;;;18.42;;
24637;SDS011;12773;50.162;8.548;2022-12-18T07:20:49;39.92;;;16.02;;
24637;SDS011;12773;50.162;8.548;2022-12-18T07:23:36;41.83;;;15.50;;
24637;SDS011;12773;50.162;8.548;2022-12-18T07:26:24;42.43;;;16.10;;
24637;SDS011;12773;50.162;8.548;2022-12-18T07:29:11;42.67;;;15.65;;
24637;SDS011;12773;50.162;8.548;2022-12-18T07:31:59;36.15;;;13.83;;
24637;SDS011;12773;50.162;8.548;2022-12-18T07:34:46;45.63;;;16.80;;
24637;SDS011;12773;50.162;8.548;2022-12-18T07:37:33;48.55;;;17.85;;
24637;SDS011;12773;50.162;8.548;2022-12-18T07:40:21;46.77;;;17.48;;
24637;SDS011;12773;50.162;8.548;2022-12-18T07:43:08;52.83;;;20.77;;
24637;SDS011;12773;50.162;8.548;2022-12-18T07:45:56;45.98;;;17.70;;
24637;SDS011;12773;50.162;8.548;2022-12-18T07:48:43;43.15;;;16.23;;
24637;SDS011;12773;50.162;8.548;2022-12-18T07:51:32;55.58;;;21.45;;
24637;SDS011;12773;50.162;8.548;2022-12-18T07:54:20;53.87;;;22.25;;
24637;SDS011;12773;50.162;8.548;2022-12-18T07:57:07;46.10;;;16.90;;
24637;SDS011;12773;50.162;8.548;2022-12-18T07:59:56;36.42;;;14.58;;
24637;SDS011;12773;50.162;8.548;2022-12-18T08:02:44;43.80;;;17.10;;
24637;SDS011;12773;50.162;8.548;2022-12-18T08:05:33;50.63;;;18.12;;
24637;SDS011;12773;50.162;8.548;2022-12-18T08:08:20;43.95;;;16.27;;
24637;SDS011;12773;50.162;8.548;2022-12-18T08:11:07;40.90;;;17.10;;
24637;SDS011;12773;50.162;8.548;2022-12-18T08:13:55;48.73;;;18.80;;
24637;SDS011;12773;50.162;8.548;2022-12-18T08:16:42;46.42;;;18.27;;
24637;SDS011;12773;50.162;8.548;2022-12-18T08:19:30;45.30;;;18.77;;
24637;SDS011;12773;50.162;8.548;2022-12-18T08:22:17;46.33;;;16.77;;
24637;SDS011;12773;50.162;8.548;2022-12-18T08:25:05;45.30;;;16.77;;
24637;SDS011;12773;50.162;8.548;2022-12-18T08:27:53;42.78;;;16.50;;
24637;SDS011;12773;50.162;8.548;2022-12-18T08:30:42;46.08;;;17.67;;
24637;SDS011;12773;50.162;8.548;2022-12-18T08:33:29;42.45;;;16.10;;
24637;SDS011;12773;50.162;8.548;2022-12-18T08:36:17;39.03;;;16.15;;
24637;SDS011;12773;50.162;8.548;2022-12-18T08:39:05;43.85;;;17.30;;
24637;SDS011;12773;50.162;8.548;2022-12-18T08:41:52;49.85;;;16.77;;
24637;SDS011;12773;50.162;8.548;2022-12-18T08:44:57;43.68;;;17.30;;
24637;SDS011;12773;50.162;8.548;2022-12-18T08:47:45;37.48;;;15.60;;
24637;SDS011;12773;50.162;8.548;2022-12-18T08:50:32;36.70;;;14.78;;
24637;SDS011;12773;50.162;8.548;2022-12-18T08:53:20;37.93;;;15.10;;
24637;SDS011;12773;50.162;8.548;2022-12-18T08:56:08;42.35;;;16.02;;
24637;SDS011;12773;50.162;8.548;2022-12-18T08:58:55;36.53;;;15.35;;
24637;SDS011;12773;50.162;8.548;2022-12-18T09:01:43;34.13;;;15.00;;
24637;SDS011;12773;50.162;8.548;2022-12-18T09:04:30;35.33;;;14.85;;
24637;SDS011;12773;50.162;8.548;2022-12-18T09:07:18;43.13;;;16.57;;
24637;SDS011;12773;50.162;8.548;2022-12-18T09:10:08;36.33;;;14.53;;
24637;SDS011;12773;50.162;8.548;2022-12-18T09:12:55;38.33;;;14.68;;
24637;SDS011;12773;50.162;8.548;2022-12-18T09:15:47;37.53;;;15.25;;
24637;SDS011;12773;50.162;8.548;2022-12-18T09:18:38;34.83;;;13.83;;
24637;SDS011;12773;50.162;8.548;2022-12-18T09:21:27;33.80;;;14.85;;
24637;SDS011;12773;50.162;8.548;2022-12-18T09:24:20;34.98;;;15.30;;
24637;SDS011;12773;50.162;8.548;2022-12-18T09:27:10;40.90;;;16.02;;
24637;SDS011;12773;50.162;8.548;2022-12-18T09:29:58;37.58;;;16.05;;
24637;SDS011;12773;50.162;8.548;2022-12-18T09:32:45;34.35;;;14.75;;
24637;SDS011;12773;50.162;8.548;2022-12-18T09:35:32;40.17;;;16.40;;
24637;SDS011;12773;50.162;8.548;2022-12-18T09:38:25;38.70;;;16.23;;
24637;SDS011;12773;50.162;8.548;2022-12-18T09:44:27;38.78;;;16.55;;
24637;SDS011;12773;50.162;8.548;2022-12-18T09:47:22;41.65;;;18.35;;
24637;SDS011;12773;50.162;8.548;2022-12-18T09:50:31;41.28;;;18.23;;
24637;SDS011;12773;50.162;8.548;2022-12-18T09:53:08;45.48;;;18.98;;
24637;SDS011;12773;50.162;8.548;2022-12-18T09:56:03;37.83;;;17.73;;
24637;SDS011;12773;50.162;8.548;2022-12-18T09:58:58;56.13;;;19.57;;
24637;SDS011;12773;50.162;8.548;2022-12-18T10:01:47;40.88;;;18.37;;
24637;SDS011;12773;50.162;8.548;2022-12-18T10:04:35;45.85;;;19.65;;
24637;SDS011;12773;50.162;8.548;2022-12-18T10:07:24;46.05;;;19.15;;
24637;SDS011;12773;50.162;8.548;2022-12-18T10:13:36;44.20;;;20.20;;
24637;SDS011;12773;50.162;8.548;2022-12-18T10:16:29;49.15;;;19.35;;
24637;SDS011;12773;50.162;8.548;2022-12-18T10:19:25;35.53;;;14.50;;
24637;SDS011;12773;50.162;8.548;2022-12-18T10:28:52;52.90;;;20.05;;
24637;SDS011;12773;50.162;8.548;2022-12-18T10:31:43;54.67;;;22.02;;
24637;SDS011;12773;50.162;8.548;2022-12-18T10:34:31;51.68;;;21.70;;
24637;SDS011;12773;50.162;8.548;2022-12-18T10:37:19;58.13;;;22.77;;
24637;SDS011;12773;50.162;8.548;2022-12-18T10:40:13;53.90;;;21.62;;
24637;SDS011;12773;50.162;8.548;2022-12-18T10:43:12;49.25;;;21.02;;
24637;SDS011;12773;50.162;8.548;2022-12-18T10:46:02;55.10;;;22.87;;
24637;SDS011;12773;50.162;8.548;2022-12-18T10:48:58;54.03;;;20.92;;
24637;SDS011;12773;50.162;8.548;2022-12-18T10:51:46;56.28;;;23.15;;
24637;SDS011;12773;50.162;8.548;2022-12-18T10:54:34;56.77;;;23.22;;
24637;SDS011;12773;50.162;8.548;2022-12-18T10:57:35;55.85;;;22.17;;
24637;SDS011;12773;50.162;8.548;2022-12-18T11:00:27;60.52;;;22.77;;
24637;SDS011;12773;50.162;8.548;2022-12-18T11:03:28;57.40;;;21.95;;
24637;SDS011;12773;50.162;8.548;2022-12-18T11:06:19;57.30;;;22.05;;
24637;SDS011;12773;50.162;8.548;2022-12-18T11:09:19;60.67;;;23.40;;
24637;SDS011;12773;50.162;8.548;2022-12-18T11:12:16;61.53;;;24.85;;
24637;SDS011;12773;50.162;8.548;2022-12-18T11:15:13;50.23;;;21.45;;
24637;SDS011;12773;50.162;8.548;2022-12-18T11:18:03;61.02;;;22.95;;
24637;SDS011;12773;50.162;8.548;2022-12-18T11:20:55;52.85;;;21.97;;
24637;SDS011;12773;50.162;8.548;2022-12-18T11:23:50;55.17;;;22.20;;
24637;SDS011;12773;50.162;8.548;2022-12-18T11:26:42;58.65;;;22.10;;
24637;SDS011;12773;50.162;8.548;2022-12-18T11:29:34;59.33;;;24.07;;
24637;SDS011;12773;50.162;8.548;2022-12-18T11:32:30;59.18;;;22.73;;
24637;SDS011;12773;50.162;8.548;2022-12-18T11:35:17;59.58;;;22.65;;
24637;SDS011;12773;50.162;8.548;2022-12-18T11:38:10;62.10;;;23.60;;
24637;SDS011;12773;50.162;8.548;2022-12-18T11:41:21;62.00;;;22.50;;
24637;SDS011;12773;50.162;8.548;2022-12-18T11:44:13;62.15;;;22.77;;
24637;SDS011;12773;50.162;8.548;2022-12-18T11:47:05;64.72;;;24.23;;
24637;SDS011;12773;50.162;8.548;2022-12-18T11:49:54;69.70;;;26.25;;
24637;SDS011;12773;50.162;8.548;2022-12-18T11:52:44;70.70;;;24.40;;
24637;SDS011;12773;50.162;8.548;2022-12-18T11:59:15;58.45;;;23.30;;
24637;SDS011;12773;50.162;8.548;2022-12-18T12:02:28;66.15;;;24.15;;
24637;SDS011;12773;50.162;8.548;2022-12-18T12:05:17;61.42;;;21.95;;
24637;SDS011;12773;50.162;8.548;2022-12-18T12:08:15;61.45;;;21.48;;
24637;SDS011;12773;50.162;8.548;2022-12-18T12:14:21;62.93;;;21.95;;
24637;SDS011;12773;50.162;8.548;2022-12-18T12:17:16;55.20;;;20.68;;
24637;SDS011;12773;50.162;8.548;2022-12-18T12:20:18;60.10;;;22.02;;
24637;SDS011;12773;50.162;8.548;2022-12-18T12:23:26;65.95;;;23.45;;
24637;SDS011;12773;50.162;8.548;2022-12-18T12:29:58;65.15;;;22.35;;
24637;SDS011;12773;50.162;8.548;2022-12-18T12:35:49;61.80;;;23.05;;
24637;SDS011;12773;50.162;8.548;2022-12-18T12:38:43;62.10;;;22.80;;
24637;SDS011;12773;50.162;8.548;2022-12-18T12:41:36;61.20;;;22.27;;
24637;SDS011;12773;50.162;8.548;2022-12-18T12:44:44;61.58;;;21.12;;
24637;SDS011;12773;50.162;8.548;2022-12-18T12:47:40;63.65;;;22.05;;
24637;SDS011;12773;50.162;8.548;2022-12-18T12:50:30;64.62;;;22.30;;
24637;SDS011;12773;50.162;8.548;2022-12-18T12:53:29;62.78;;;22.20;;
24637;SDS011;12773;50.162;8.548;2022-12-18T12:56:18;66.15;;;22.62;;
24637;SDS011;12773;50.162;8.548;2022-12-18T12:59:13;63.85;;;23.38;;
24637;SDS011;12773;50.162;8.548;2022-12-18T13:02:06;62.27;;;21.87;;
24637;SDS011;12773;50.162;8.548;2022-12-18T13:08:22;70.83;;;25.72;;
24637;SDS011;12773;50.162;8.548;2022-12-18T13:11:27;67.60;;;24.50;;
24637;SDS011;12773;50.162;8.548;2022-12-18T13:14:39;66.85;;;24.40;;
24637;SDS011;12773;50.162;8.548;2022-12-18T13:17:28;68.83;;;24.15;;
24637;SDS011;12773;50.162;8.548;2022-12-18T13:20:16;67.58;;;24.07;;
24637;SDS011;12773;50.162;8.548;2022-12-18T13:23:51;68.70;;;24.25;;
24637;SDS011;12773;50.162;8.548;2022-12-18T13:29:09;62.25;;;22.75;;
24637;SDS011;12773;50.162;8.548;2022-12-18T13:31:58;76.42;;;23.98;;
24637;SDS011;12773;50.162;8.548;2022-12-18T13:34:46;60.78;;;22.02;;
24637;SDS011;12773;50.162;8.548;2022-12-18T13:37:41;71.35;;;23.70;;
24637;SDS011;12773;50.162;8.548;2022-12-18T13:46:45;62.80;;;22.35;;
24637;SDS011;12773;50.162;8.548;2022-12-18T13:49:36;63.68;;;21.80;;
24637;SDS011;12773;50.162;8.548;2022-12-18T13:52:33;62.00;;;20.45;;
24637;SDS011;12773;50.162;8.548;2022-12-18T13:55:22;64.37;;;22.02;;
24637;SDS011;12773;50.162;8.548;2022-12-18T13:58:11;61.77;;;19.73;;
24637;SDS011;12773;50.162;8.548;2022-12-18T14:00:59;70.42;;;21.52;;
24637;SDS011;12773;50.162;8.548;2022-12-18T14:03:48;67.67;;;22.32;;
24637;SDS011;12773;50.162;8.548;2022-12-18T14:06:37;65.50;;;22.45;;
24637;SDS011;12773;50.162;8.548;2022-12-18T14:09:26;62.90;;;21.20;;
24637;SDS011;12773;50.162;8.548;2022-12-18T14:12:23;67.35;;;22.30;;
24637;SDS011;12773;50.162;8.548;2022-12-18T14:15:33;65.72;;;22.25;;
24637;SDS011;12773;50.162;8.548;2022-12-18T14:21:21;65.57;;;21.60;;
24637;SDS011;12773;50.162;8.548;2022-12-18T14:27:21;70.35;;;23.10;;
24637;SDS011;12773;50.162;8.548;2022-12-18T14:33:20;64.05;;;21.93;;
24637;SDS011;12773;50.162;8.548;2022-12-18T14:36:13;73.83;;;24.27;;
24637;SDS011;12773;50.162;8.548;2022-12-18T14:38:57;69.40;;;24.52;;
24637;SDS011;12773;50.162;8.548;2022-12-18T14:41:44;73.70;;;22.40;;
24637;SDS011;12773;50.162;8.548;2022-12-18T14:44:33;72.12;;;24.23;;
24637;SDS011;12773;50.162;8.548;2022-12-18T14:47:23;64.82;;;23.60;;
24637;SDS011;12773;50.162;8.548;2022-12-18T14:50:13;74.00;;;25.17;;
24637;SDS011;12773;50.162;8.548;2022-12-18T14:53:01;61.02;;;22.32;;
24637;SDS011;12773;50.162;8.548;2022-12-18T14:55:48;70.60;;;23.57;;
24637;SDS011;12773;50.162;8.548;2022-12-18T14:58:38;68.60;;;23.50;;
24637;SDS011;12773;50.162;8.548;2022-12-18T15:01:35;63.17;;;20.72;;
24637;SDS011;12773;50.162;8.548;2022-12-18T15:04:31;68.40;;;24.00;;
24637;SDS011;12773;50.162;8.548;2022-12-18T15:07:26;72.35;;;23.15;;
24637;SDS011;12773;50.162;8.548;2022-12-18T15:10:18;70.05;;;23.10;;
24637;SDS011;12773;50.162;8.548;2022-12-18T15:13:15;65.00;;;21.85;;
24637;SDS011;12773;50.162;8.548;2022-12-18T15:16:00;70.55;;;23.20;;
24637;SDS011;12773;50.162;8.548;2022-12-18T15:18:48;69.72;;;22.32;;
24637;SDS011;12773;50.162;8.548;2022-12-18T15:21:38;69.07;;;23.20;;
24637;SDS011;12773;50.162;8.548;2022-12-18T15:24:29;69.00;;;21.93;;
24637;SDS011;12773;50.162;8.548;2022-12-18T15:27:34;71.87;;;23.25;;
24637;SDS011;12773;50.162;8.548;2022-12-18T15:30:24;67.62;;;21.52;;
24637;SDS011;12773;50.162;8.548;2022-12-18T15:33:22;67.60;;;22.13;;
24637;SDS011;12773;50.162;8.548;2022-12-18T15:36:14;73.30;;;25.15;;
24637;SDS011;12773;50.162;8.548;2022-12-18T15:39:04;72.22;;;25.62;;
24637;SDS011;12773;50.162;8.548;2022-12-18T15:41:52;70.50;;;24.35;;
24637;SDS011;12773;50.162;8.548;2022-12-18T15:44:59;72.62;;;22.90;;
24637;SDS011;12773;50.162;8.548;2022-12-18T15:47:46;65.60;;;23.52;;
24637;SDS011;12773;50.162;8.548;2022-12-18T15:50:34;67.58;;;22.90;;
24637;SDS011;12773;50.162;8.548;2022-12-18T15:53:25;69.42;;;24.30;;
24637;SDS011;12773;50.162;8.548;2022-12-18T15:56:15;70.80;;;22.25;;
24637;SDS011;12773;50.162;8.548;2022-12-18T15:59:24;68.20;;;23.45;;
24637;SDS011;12773;50.162;8.548;2022-12-18T16:02:14;77.03;;;26.05;;
24637;SDS011;12773;50.162;8.548;2022-12-18T16:05:07;73.90;;;23.12;;
24637;SDS011;12773;50.162;8.548;2022-12-18T16:07:54;69.03;;;23.87;;
24637;SDS011;12773;50.162;8.548;2022-12-18T16:10:42;66.77;;;22.70;;
24637;SDS011;12773;50.162;8.548;2022-12-18T16:13:30;66.47;;;22.60;;
24637;SDS011;12773;50.162;8.548;2022-12-18T16:16:17;72.12;;;22.07;;
24637;SDS011;12773;50.162;8.548;2022-12-18T16:19:04;66.00;;;23.77;;
24637;SDS011;12773;50.162;8.548;2022-12-18T16:21:52;88.50;;;28.87;;
24637;SDS011;12773;50.162;8.548;2022-12-18T16:24:42;77.85;;;26.50;;
24637;SDS011;12773;50.162;8.548;2022-12-18T16:27:29;73.75;;;25.75;;
24637;SDS011;12773;50.162;8.548;2022-12-18T16:30:19;79.40;;;26.55;;
24637;SDS011;12773;50.162;8.548;2022-12-18T16:33:08;78.25;;;23.40;;
24637;SDS011;12773;50.162;8.548;2022-12-18T16:35:57;65.55;;;21.75;;
24637;SDS011;12773;50.162;8.548;2022-12-18T16:38:44;71.67;;;23.52;;
24637;SDS011;12773;50.162;8.548;2022-12-18T16:41:32;69.25;;;23.10;;
24637;SDS011;12773;50.162;8.548;2022-12-18T16:44:21;61.75;;;22.85;;
24637;SDS011;12773;50.162;8.548;2022-12-18T16:47:09;69.00;;;23.57;;
24637;SDS011;12773;50.162;8.548;2022-12-18T16:49:58;70.62;;;23.25;;
24637;SDS011;12773;50.162;8.548;2022-12-18T16:52:45;66.05;;;23.20;;
24637;SDS011;12773;50.162;8.548;2022-12-18T16:55:33;78.80;;;25.20;;
24637;SDS011;12773;50.162;8.548;2022-12-18T16:58:23;72.45;;;23.77;;
24637;SDS011;12773;50.162;8.548;2022-12-18T17:01:10;75.80;;;25.05;;
24637;SDS011;12773;50.162;8.548;2022-12-18T17:04:01;76.10;;;25.65;;
24637;SDS011;12773;50.162;8.548;2022-12-18T17:06:56;78.07;;;25.92;;
24637;SDS011;12773;50.162;8.548;2022-12-18T17:09:40;73.28;;;25.75;;
24637;SDS011;12773;50.162;8.548;2022-12-18T17:12:28;79.25;;;26.45;;
24637;SDS011;12773;50.162;8.548;2022-12-18T17:15:15;72.92;;;25.27;;
24637;SDS011;12773;50.162;8.548;2022-12-18T17:18:04;69.85;;;25.35;;
24637;SDS011;12773;50.162;8.548;2022-12-18T17:20:52;81.12;;;26.30;;
24637;SDS011;12773;50.162;8.548;2022-12-18T17:23:41;76.15;;;27.25;;
24637;SDS011;12773;50.162;8.548;2022-12-18T17:26:29;65.72;;;25.00;;
24637;SDS011;12773;50.162;8.548;2022-12-18T17:29:17;77.60;;;26.12;;
24637;SDS011;12773;50.162;8.548;2022-12-18T17:32:10;64.92;;;22.95;;
24637;SDS011;12773;50.162;8.548;2022-12-18T17:34:57;76.62;;;27.48;;
24637;SDS011;12773;50.162;8.548;2022-12-18T17:37:46;73.83;;;26.25;;
24637;SDS011;12773;50.162;8.548;2022-12-18T17:40:33;77.62;;;26.57;;
24637;SDS011;12773;50.162;8.548;2022-12-18T17:43:22;75.90;;;25.90;;
24637;SDS011;12773;50.162;8.548;2022-12-18T17:46:10;73.83;;;26.27;;
24637;SDS011;12773;50.162;8.548;2022-12-18T17:49:00;82.35;;;29.37;;
24637;SDS011;12773;50.162;8.548;2022-12-18T17:51:48;81.35;;;26.90;;
24637;SDS011;12773;50.162;8.548;2022-12-18T17:54:39;80.55;;;27.70;;
24637;SDS011;12773;50.162;8.548;2022-12-18T17:57:28;75.92;;;26.37;;